createdAt,value
2018-05-25T00:00:10.416Z,996.2
2018-05-25T00:01:19.893Z,996.22
2018-05-25T00:02:29.921Z,996.25
2018-05-25T00:03:39.662Z,996.23
2018-05-25T00:04:49.137Z,996.25
2018-05-25T00:05:59.158Z,996.19
2018-05-25T00:07:08.906Z,996.24
2018-05-25T00:08:18.650Z,996.24
2018-05-25T00:09:28.129Z,996.23
2018-05-25T00:10:38.196Z,996.18
2018-05-25T00:11:47.962Z,996.2
2018-05-25T00:12:57.972Z,996.19
2018-05-25T00:14:07.717Z,996.19
2018-05-25T00:15:17.734Z,996.19
2018-05-25T00:16:27.236Z,996.19
2018-05-25T00:17:37.243Z,996.18
2018-05-25T00:18:46.991Z,996.16
2018-05-25T00:19:56.739Z,996.17
2018-05-25T00:21:06.757Z,996.2
2018-05-25T00:22:16.503Z,996.16
2018-05-25T00:23:25.981Z,996.17
2018-05-25T00:24:35.993Z,996.18
2018-05-25T00:25:46.059Z,996.18
2018-05-25T00:26:55.808Z,996.17
2018-05-25T00:28:05.818Z,996.15
2018-05-25T00:29:15.563Z,996.16
2018-05-25T00:30:25.572Z,996.16
2018-05-25T00:31:35.585Z,996.12
2018-05-25T00:32:45.604Z,996.12
2018-05-25T00:33:55.611Z,996.14
2018-05-25T00:35:05.359Z,996.12
2018-05-25T00:36:14.628Z,996.11
2018-05-25T00:37:24.651Z,996.1
2018-05-25T00:38:34.390Z,996.13
2018-05-25T00:39:44.402Z,996.12
2018-05-25T00:40:54.145Z,996.06
2018-05-25T00:42:03.623Z,996.18
2018-05-25T00:43:13.632Z,996.14
2018-05-25T00:44:23.656Z,996.12
2018-05-25T00:45:33.401Z,996.15
2018-05-25T00:46:42.880Z,996.17
2018-05-25T00:47:52.650Z,996.18
2018-05-25T00:49:01.864Z,996.2
2018-05-25T00:50:11.609Z,996.16
2018-05-25T00:51:21.114Z,996.21
2018-05-25T00:52:30.864Z,996.2
2018-05-25T00:53:40.886Z,996.22
2018-05-25T00:54:50.896Z,996.17
2018-05-25T00:56:00.914Z,996.22
2018-05-25T00:57:10.938Z,996.19
2018-05-25T00:58:20.949Z,996.22
2018-05-25T00:59:30.997Z,996.18
2018-05-25T01:00:41.020Z,996.21
2018-05-25T01:01:51.036Z,996.2
2018-05-25T01:03:00.794Z,996.22
2018-05-25T01:04:10.272Z,996.23
2018-05-25T01:05:20.025Z,996.23
2018-05-25T01:06:29.774Z,996.24
2018-05-25T01:07:39.248Z,996.23
2018-05-25T01:08:48.989Z,996.26
2018-05-25T01:09:59.013Z,996.25
2018-05-25T01:11:09.115Z,996.25
2018-05-25T01:12:19.135Z,996.29
2018-05-25T01:13:29.157Z,996.28
2018-05-25T01:14:38.948Z,996.29
2018-05-25T01:15:48.968Z,996.3
2018-05-25T01:16:58.983Z,996.27
2018-05-25T01:18:08.730Z,996.25
2018-05-25T01:19:18.752Z,996.25
2018-05-25T01:20:28.767Z,996.25
2018-05-25T01:21:38.512Z,996.25
2018-05-25T01:22:48.257Z,996.27
2018-05-25T01:23:58.274Z,996.3
2018-05-25T01:25:08.295Z,996.25
2018-05-25T01:26:18.041Z,996.27
2018-05-25T01:27:28.057Z,996.23
2018-05-25T01:28:38.080Z,996.24
2018-05-25T01:29:48.093Z,996.28
2018-05-25T01:30:58.101Z,996.25
2018-05-25T01:32:07.851Z,996.26
2018-05-25T01:33:17.869Z,996.22
2018-05-25T01:34:27.885Z,996.3
2018-05-25T01:35:37.898Z,996.25
2018-05-25T01:36:47.644Z,996.22
2018-05-25T01:37:57.656Z,996.23
2018-05-25T01:39:07.135Z,996.23
2018-05-25T01:40:16.882Z,996.22
2018-05-25T01:41:26.899Z,996.23
2018-05-25T01:42:36.385Z,996.21
2018-05-25T01:43:46.406Z,996.22
2018-05-25T01:44:56.147Z,996.2
2018-05-25T01:46:06.164Z,996.16
2018-05-25T01:47:15.643Z,996.2
2018-05-25T01:48:25.656Z,996.17
2018-05-25T01:49:35.663Z,996.13
2018-05-25T01:50:45.404Z,996.18
2018-05-25T01:51:55.145Z,996.2
2018-05-25T01:53:04.887Z,996.19
2018-05-25T01:54:14.624Z,996.21
2018-05-25T01:55:24.638Z,996.21
2018-05-25T01:56:34.697Z,996.22
2018-05-25T01:57:44.714Z,996.21
2018-05-25T01:58:54.734Z,996.23
2018-05-25T02:00:04.745Z,996.23
2018-05-25T02:01:14.763Z,996.24
2018-05-25T02:02:24.779Z,996.25
2018-05-25T02:03:34.792Z,996.29
2018-05-25T02:04:44.532Z,996.25
2018-05-25T02:05:54.547Z,996.25
2018-05-25T02:07:03.763Z,996.28
2018-05-25T02:08:13.775Z,996.27
2018-05-25T02:09:23.785Z,996.22
2018-05-25T02:10:33.794Z,996.23
2018-05-25T02:11:42.735Z,996.27
2018-05-25T02:12:52.214Z,996.26
2018-05-25T02:14:01.968Z,996.27
2018-05-25T02:15:11.983Z,996.29
2018-05-25T02:16:21.996Z,996.31
2018-05-25T02:17:32.009Z,996.29
2018-05-25T02:18:42.022Z,996.3
2018-05-25T02:19:51.228Z,996.32
2018-05-25T02:21:01.011Z,996.34
2018-05-25T02:22:10.752Z,996.34
2018-05-25T02:23:20.495Z,996.37
2018-05-25T02:24:30.237Z,996.4
2018-05-25T02:25:40.246Z,996.38
2018-05-25T02:26:50.305Z,996.39
2018-05-25T02:28:00.046Z,996.38
2018-05-25T02:29:09.257Z,996.32
2018-05-25T02:30:19.265Z,996.32
2018-05-25T02:31:29.279Z,996.33
2018-05-25T02:32:39.292Z,996.34
2018-05-25T02:33:49.044Z,996.31
2018-05-25T02:34:58.519Z,996.34
2018-05-25T02:36:08.538Z,996.29
2018-05-25T02:37:18.282Z,996.35
2018-05-25T02:38:28.113Z,996.37
2018-05-25T02:39:38.312Z,996.39
2018-05-25T02:40:48.327Z,996.33
2018-05-25T02:41:58.076Z,996.35
2018-05-25T02:43:07.833Z,996.38
2018-05-25T02:44:17.591Z,996.34
2018-05-25T02:45:27.625Z,996.36
2018-05-25T02:46:37.651Z,996.38
2018-05-25T02:47:47.400Z,996.37
2018-05-25T02:48:57.412Z,996.38
2018-05-25T02:50:06.356Z,996.41
2018-05-25T02:51:16.107Z,996.43
2018-05-25T02:52:25.591Z,996.43
2018-05-25T02:53:35.409Z,996.38
2018-05-25T02:54:45.160Z,996.46
2018-05-25T02:55:55.167Z,996.46
2018-05-25T02:57:04.909Z,996.48
2018-05-25T02:58:14.727Z,996.46
2018-05-25T02:59:24.206Z,996.44
2018-05-25T03:04:31.488Z,996.5
2018-05-25T03:05:41.236Z,996.48
2018-05-25T03:06:51.256Z,996.49
2018-05-25T03:08:00.997Z,996.5
2018-05-25T03:09:10.498Z,996.44
2018-05-25T03:10:19.987Z,996.52
2018-05-25T03:11:29.472Z,996.49
2018-05-25T03:12:39.491Z,996.48
2018-05-25T03:13:49.516Z,996.54
2018-05-25T03:14:59.528Z,996.55
2018-05-25T03:16:09.285Z,996.51
2018-05-25T03:17:18.494Z,996.56
2018-05-25T03:18:28.507Z,996.57
2018-05-25T03:19:38.536Z,996.54
2018-05-25T03:20:48.070Z,996.54
2018-05-25T03:21:58.084Z,996.56
2018-05-25T03:23:08.102Z,996.55
2018-05-25T03:24:18.117Z,996.55
2018-05-25T03:25:28.127Z,996.58
2018-05-25T03:26:38.140Z,996.56
2018-05-25T03:27:47.900Z,996.56
2018-05-25T03:28:57.649Z,996.53
2018-05-25T03:30:07.393Z,996.57
2018-05-25T03:31:17.155Z,996.54
2018-05-25T03:32:26.912Z,996.55
2018-05-25T03:33:36.926Z,996.55
2018-05-25T03:34:46.941Z,996.55
2018-05-25T03:35:56.948Z,996.58
2018-05-25T03:37:06.161Z,996.6
2018-05-25T03:38:15.373Z,996.56
2018-05-25T03:39:25.114Z,996.55
2018-05-25T03:40:35.124Z,996.52
2018-05-25T03:41:44.879Z,996.57
2018-05-25T03:42:54.888Z,996.57
2018-05-25T03:44:04.635Z,996.59
2018-05-25T03:45:14.647Z,996.59
2018-05-25T03:46:24.655Z,996.58
2018-05-25T03:47:34.399Z,996.56
2018-05-25T03:48:44.409Z,996.57
2018-05-25T03:49:54.420Z,996.53
2018-05-25T03:51:04.163Z,996.55
2018-05-25T03:52:13.915Z,996.54
2018-05-25T03:53:23.394Z,996.58
2018-05-25T03:54:33.142Z,996.59
2018-05-25T03:55:43.153Z,996.61
2018-05-25T03:56:53.176Z,996.65
2018-05-25T03:58:03.184Z,996.61
2018-05-25T03:59:12.407Z,996.63
2018-05-25T04:00:22.427Z,996.64
2018-05-25T04:01:32.480Z,996.64
2018-05-25T04:02:42.721Z,996.65
2018-05-25T04:03:52.476Z,996.67
2018-05-25T04:05:02.519Z,996.66
2018-05-25T04:06:12.587Z,996.7
2018-05-25T04:07:22.603Z,996.65
2018-05-25T04:08:32.616Z,996.68
2018-05-25T04:09:42.627Z,996.65
2018-05-25T04:10:52.638Z,996.69
2018-05-25T04:12:02.114Z,996.72
2018-05-25T04:13:11.590Z,996.67
2018-05-25T04:14:21.627Z,996.7
2018-05-25T04:15:31.116Z,996.71
2018-05-25T04:16:41.137Z,996.73
2018-05-25T04:17:50.617Z,996.73
2018-05-25T04:19:00.365Z,996.75
2018-05-25T04:20:10.113Z,996.73
2018-05-25T04:21:20.136Z,996.72
2018-05-25T04:22:29.887Z,996.74
2018-05-25T04:23:39.629Z,996.74
2018-05-25T04:24:49.426Z,996.73
2018-05-25T04:25:59.169Z,996.71
2018-05-25T04:27:08.380Z,996.74
2018-05-25T04:28:18.412Z,996.74
2018-05-25T04:29:28.425Z,996.73
2018-05-25T04:30:38.437Z,996.77
2018-05-25T04:31:48.452Z,996.72
2018-05-25T04:32:58.467Z,996.73
2018-05-25T04:34:08.479Z,996.73
2018-05-25T04:35:18.496Z,996.72
2018-05-25T04:36:28.243Z,996.76
2018-05-25T04:37:38.256Z,996.76
2018-05-25T04:38:48.267Z,996.74
2018-05-25T04:39:58.053Z,996.75
2018-05-25T04:41:08.079Z,996.71
2018-05-25T04:42:18.098Z,996.69
2018-05-25T04:43:27.315Z,996.73
2018-05-25T04:44:36.794Z,996.72
2018-05-25T04:45:46.547Z,996.69
2018-05-25T04:46:56.035Z,996.7
2018-05-25T04:48:05.777Z,996.7
2018-05-25T04:49:15.521Z,996.7
2018-05-25T04:50:25.270Z,996.67
2018-05-25T04:51:35.013Z,996.71
2018-05-25T04:52:44.526Z,996.71
2018-05-25T04:53:54.003Z,996.71
2018-05-25T04:55:04.032Z,996.75
2018-05-25T04:56:14.049Z,996.74
2018-05-25T04:57:23.801Z,996.75
2018-05-25T04:58:33.550Z,996.73
2018-05-25T04:59:43.560Z,996.75
2018-05-25T05:00:52.770Z,996.75
2018-05-25T05:02:02.513Z,996.78
2018-05-25T05:03:12.546Z,996.77
2018-05-25T05:04:22.307Z,996.75
2018-05-25T05:05:31.795Z,996.74
2018-05-25T05:06:41.838Z,996.76
2018-05-25T05:07:51.584Z,996.77
2018-05-25T05:09:01.329Z,996.77
2018-05-25T05:10:11.076Z,996.76
2018-05-25T05:11:20.821Z,996.77
2018-05-25T05:12:30.573Z,996.78
2018-05-25T05:13:40.323Z,996.8
2018-05-25T05:14:49.606Z,996.83
2018-05-25T05:15:59.421Z,996.83
2018-05-25T05:17:09.177Z,996.85
2018-05-25T05:18:19.194Z,996.83
2018-05-25T05:19:29.228Z,996.86
2018-05-25T05:20:39.255Z,996.88
2018-05-25T05:21:49.280Z,996.87
2018-05-25T05:22:59.336Z,996.89
2018-05-25T05:24:09.263Z,996.88
2018-05-25T05:25:19.007Z,996.88
2018-05-25T05:26:28.748Z,996.86
2018-05-25T05:27:38.536Z,996.9
2018-05-25T05:28:47.763Z,996.9
2018-05-25T05:29:57.518Z,996.89
2018-05-25T05:31:06.999Z,996.9
2018-05-25T05:32:16.748Z,996.9
2018-05-25T05:33:26.764Z,996.91
2018-05-25T05:34:36.911Z,996.92
2018-05-25T05:35:46.394Z,996.91
2018-05-25T05:36:56.423Z,996.91
2018-05-25T05:38:06.441Z,996.89
2018-05-25T05:39:15.923Z,996.93
2018-05-25T05:40:25.715Z,996.93
2018-05-25T05:41:35.468Z,996.91
2018-05-25T05:42:45.482Z,996.91
2018-05-25T05:43:55.541Z,996.92
2018-05-25T05:45:05.552Z,996.91
2018-05-25T05:46:15.315Z,996.89
2018-05-25T05:47:25.334Z,996.94
2018-05-25T05:48:35.351Z,996.92
2018-05-25T05:49:45.096Z,996.91
2018-05-25T05:50:55.165Z,996.89
2018-05-25T05:52:05.114Z,996.89
2018-05-25T05:53:15.134Z,996.86
2018-05-25T05:54:24.882Z,996.87
2018-05-25T05:55:34.632Z,996.84
2018-05-25T05:56:44.647Z,996.87
2018-05-25T05:57:54.661Z,996.85
2018-05-25T05:59:04.401Z,996.9
2018-05-25T06:00:14.438Z,996.86
2018-05-25T06:01:24.191Z,996.86
2018-05-25T06:02:34.204Z,996.89
2018-05-25T06:03:43.419Z,996.85
2018-05-25T06:04:53.431Z,996.9
2018-05-25T06:06:03.184Z,996.87
2018-05-25T06:07:12.929Z,996.89
2018-05-25T06:08:22.417Z,996.89
2018-05-25T06:09:32.438Z,996.93
2018-05-25T06:10:42.453Z,996.92
2018-05-25T06:11:52.479Z,996.9
2018-05-25T06:13:02.254Z,996.9
2018-05-25T06:14:11.978Z,996.91
2018-05-25T06:15:21.992Z,996.92
2018-05-25T06:16:31.475Z,996.93
2018-05-25T06:17:40.962Z,996.96
2018-05-25T06:18:50.714Z,997
2018-05-25T06:20:00.206Z,996.98
2018-05-25T06:21:10.352Z,996.99
2018-05-25T06:22:19.838Z,997.04
2018-05-25T06:23:29.598Z,997
2018-05-25T06:24:39.091Z,997.03
2018-05-25T06:25:49.114Z,996.99
2018-05-25T06:26:58.433Z,997.02
2018-05-25T06:28:08.450Z,997.03
2018-05-25T06:29:18.208Z,997.01
2018-05-25T06:30:28.224Z,997.04
2018-05-25T06:31:37.706Z,997.07
2018-05-25T06:32:47.508Z,997.07
2018-05-25T06:33:57.522Z,997.07
2018-05-25T06:35:07.559Z,997.04
2018-05-25T06:36:17.315Z,997.02
2018-05-25T06:37:27.067Z,997.02
2018-05-25T06:38:36.814Z,997.04
2018-05-25T06:39:46.573Z,997.03
2018-05-25T06:40:56.592Z,997.03
2018-05-25T06:42:06.344Z,996.99
2018-05-25T06:43:16.095Z,997
2018-05-25T06:44:25.937Z,997.02
2018-05-25T06:45:35.857Z,997.03
2018-05-25T06:46:45.880Z,997.07
2018-05-25T06:47:55.101Z,997.04
2018-05-25T06:49:04.857Z,997.06
2018-05-25T06:50:14.073Z,997.09
2018-05-25T06:51:24.102Z,997.08
2018-05-25T06:52:33.857Z,997.11
2018-05-25T06:53:43.633Z,997.08
2018-05-25T06:54:53.116Z,997.07
2018-05-25T06:56:02.886Z,997.06
2018-05-25T06:57:12.917Z,997.07
2018-05-25T06:58:22.666Z,997.11
2018-05-25T06:59:32.682Z,997.1
2018-05-25T07:00:42.437Z,997.07
2018-05-25T07:01:52.185Z,997.07
2018-05-25T07:03:02.210Z,997.08
2018-05-25T07:04:12.237Z,997.08
2018-05-25T07:05:21.993Z,997.1
2018-05-25T07:06:31.754Z,997.05
2018-05-25T07:07:41.511Z,997.08
2018-05-25T07:08:51.524Z,997.1
2018-05-25T07:10:01.544Z,997.1
2018-05-25T07:11:11.297Z,997.09
2018-05-25T07:12:21.050Z,997.12
2018-05-25T07:13:31.064Z,997.06
2018-05-25T07:14:40.544Z,997.08
2018-05-25T07:15:50.563Z,997.07
2018-05-25T07:17:00.319Z,997.06
2018-05-25T07:18:10.251Z,997.05
2018-05-25T07:19:20.264Z,997.09
2018-05-25T07:20:29.745Z,997.09
2018-05-25T07:21:39.760Z,997.08
2018-05-25T07:22:49.513Z,997.05
2018-05-25T07:23:58.993Z,997.07
2018-05-25T07:25:09.019Z,997.08
2018-05-25T07:26:19.045Z,997.08
2018-05-25T07:27:29.057Z,997.07
2018-05-25T07:28:38.547Z,997.09
2018-05-25T07:29:48.305Z,997.11
2018-05-25T07:30:58.322Z,997.1
2018-05-25T07:32:07.538Z,997.12
2018-05-25T07:33:17.285Z,997.05
2018-05-25T07:34:26.837Z,997.08
2018-05-25T07:35:36.587Z,997.11
2018-05-25T07:36:46.610Z,997.08
2018-05-25T07:37:56.625Z,997.09
2018-05-25T07:39:06.372Z,997.09
2018-05-25T07:40:16.192Z,997.1
2018-05-25T07:41:25.670Z,997.04
2018-05-25T07:42:35.149Z,997.1
2018-05-25T07:43:44.630Z,997.08
2018-05-25T07:44:54.378Z,997.06
2018-05-25T07:46:03.590Z,997.08
2018-05-25T07:47:13.341Z,997.1
2018-05-25T07:48:23.092Z,997.14
2018-05-25T07:49:33.108Z,997.13
2018-05-25T07:50:42.855Z,997.15
2018-05-25T07:51:52.606Z,997.15
2018-05-25T07:53:01.836Z,997.13
2018-05-25T07:54:11.329Z,997.17
2018-05-25T07:55:21.398Z,997.12
2018-05-25T07:56:31.143Z,997.12
2018-05-25T07:57:40.893Z,997.13
2018-05-25T07:58:50.651Z,997.11
2018-05-25T08:00:00.397Z,997.09
2018-05-25T08:01:09.881Z,997.14
2018-05-25T08:02:19.638Z,997.12
2018-05-25T08:03:29.665Z,997.14
2018-05-25T08:04:39.420Z,997.11
2018-05-25T08:05:49.436Z,997.11
2018-05-25T08:06:59.455Z,997.11
2018-05-25T08:08:09.206Z,997.1
2018-05-25T08:09:19.220Z,997.09
2018-05-25T08:10:29.244Z,997.1
2018-05-25T08:11:39.269Z,997.03
2018-05-25T08:12:48.760Z,997.06
2018-05-25T08:13:58.791Z,997.04
2018-05-25T08:15:08.275Z,997.08
2018-05-25T08:16:17.500Z,997.07
2018-05-25T08:17:27.255Z,997.11
2018-05-25T08:18:37.271Z,997.13
2018-05-25T08:19:47.019Z,997.09
2018-05-25T08:20:56.766Z,997.07
2018-05-25T08:22:06.252Z,997.08
2018-05-25T08:23:16.024Z,997.12
2018-05-25T08:24:25.247Z,997.06
2018-05-25T08:25:35.274Z,997.06
2018-05-25T08:26:44.488Z,997.07
2018-05-25T08:27:54.555Z,997.08
2018-05-25T08:29:04.046Z,997.08
2018-05-25T08:30:13.930Z,997.07
2018-05-25T08:31:24.382Z,997.07
2018-05-25T08:32:34.128Z,997.05
2018-05-25T08:33:44.188Z,997.02
2018-05-25T08:34:54.207Z,997.03
2018-05-25T08:36:03.766Z,997.06
2018-05-25T08:37:13.572Z,997.05
2018-05-25T08:38:23.636Z,997.01
2018-05-25T08:39:33.432Z,997.04
2018-05-25T08:40:43.232Z,997.01
2018-05-25T08:41:53.248Z,997.02
2018-05-25T08:43:03.268Z,997.05
2018-05-25T08:44:13.297Z,997.05
2018-05-25T08:45:23.048Z,997.01
2018-05-25T08:46:33.064Z,997.03
2018-05-25T08:47:42.569Z,997.06
2018-05-25T08:48:52.588Z,997.04
2018-05-25T08:50:02.074Z,997.07
2018-05-25T08:51:11.568Z,997.06
2018-05-25T08:52:21.584Z,997.09
2018-05-25T08:53:31.066Z,997.09
2018-05-25T08:54:40.281Z,997.14
2018-05-25T08:55:50.040Z,997.09
2018-05-25T08:57:00.128Z,997.13
2018-05-25T08:58:09.882Z,997.1
2018-05-25T08:59:19.628Z,997.09
2018-05-25T09:00:29.380Z,997.09
2018-05-25T09:01:39.409Z,997.08
2018-05-25T09:02:48.901Z,997.06
2018-05-25T09:03:58.727Z,997.05
2018-05-25T09:05:08.214Z,997.03
2018-05-25T09:06:18.230Z,997.04
2018-05-25T09:07:27.717Z,997.01
2018-05-25T09:08:37.729Z,997.02
2018-05-25T09:09:47.752Z,997.01
2018-05-25T09:10:57.782Z,997.05
2018-05-25T09:12:07.279Z,997.06
2018-05-25T09:13:16.777Z,997.03
2018-05-25T09:14:26.799Z,997.03
2018-05-25T09:15:36.545Z,997.06
2018-05-25T09:16:46.028Z,997.03
2018-05-25T09:17:56.052Z,997.05
2018-05-25T09:19:06.072Z,996.99
2018-05-25T09:20:15.562Z,997.04
2018-05-25T09:21:25.314Z,996.99
2018-05-25T09:22:35.345Z,996.98
2018-05-25T09:23:44.824Z,997
2018-05-25T09:24:54.855Z,996.97
2018-05-25T09:26:04.660Z,996.96
2018-05-25T09:27:14.680Z,996.87
2018-05-25T09:28:24.445Z,996.94
2018-05-25T09:29:34.197Z,996.91
2018-05-25T09:30:44.222Z,996.9
2018-05-25T09:31:54.426Z,996.94
2018-05-25T09:33:03.916Z,996.91
2018-05-25T09:34:13.671Z,996.91
2018-05-25T09:35:23.436Z,996.92
2018-05-25T09:36:33.239Z,996.93
2018-05-25T09:37:43.010Z,996.97
2018-05-25T09:38:52.755Z,996.99
2018-05-25T09:40:02.540Z,996.98
2018-05-25T09:41:12.568Z,996.94
2018-05-25T09:42:22.582Z,996.95
2018-05-25T09:43:32.344Z,996.94
2018-05-25T09:44:41.288Z,996.95
2018-05-25T09:45:51.307Z,996.91
2018-05-25T09:47:01.064Z,996.93
2018-05-25T09:48:11.087Z,996.93
2018-05-25T09:49:21.108Z,996.92
2018-05-25T09:50:30.860Z,996.93
2018-05-25T09:51:40.612Z,996.89
2018-05-25T09:52:50.640Z,996.89
2018-05-25T09:54:00.662Z,996.88
2018-05-25T09:55:10.685Z,996.88
2018-05-25T09:56:20.704Z,996.91
2018-05-25T09:57:30.722Z,996.89
2018-05-25T09:58:40.209Z,996.89
2018-05-25T09:59:49.694Z,996.88
2018-05-25T10:00:59.710Z,996.89
2018-05-25T10:02:09.200Z,996.88
2018-05-25T10:03:18.949Z,996.86
2018-05-25T10:04:28.700Z,996.89
2018-05-25T10:05:38.466Z,996.9
2018-05-25T10:06:48.536Z,996.86
2018-05-25T10:07:58.291Z,996.82
2018-05-25T10:09:07.513Z,996.79
2018-05-25T10:10:17.530Z,996.82
2018-05-25T10:11:27.549Z,996.8
2018-05-25T10:12:37.322Z,996.78
2018-05-25T10:13:47.086Z,996.8
2018-05-25T10:14:56.570Z,996.84
2018-05-25T10:16:06.603Z,996.81
2018-05-25T10:17:16.365Z,996.79
2018-05-25T10:18:26.387Z,996.77
2018-05-25T10:19:36.147Z,996.73
2018-05-25T10:20:45.929Z,996.74
2018-05-25T10:21:55.151Z,996.77
2018-05-25T10:23:04.912Z,996.76
2018-05-25T10:24:14.939Z,996.76
2018-05-25T10:25:24.967Z,996.77
2018-05-25T10:26:34.451Z,996.77
2018-05-25T10:27:44.217Z,996.77
2018-05-25T10:28:53.438Z,996.77
2018-05-25T10:30:03.189Z,996.76
2018-05-25T10:31:13.228Z,996.8
2018-05-25T10:32:22.448Z,996.82
2018-05-25T10:33:32.472Z,996.78
2018-05-25T10:34:42.226Z,996.8
2018-05-25T10:35:51.978Z,996.78
2018-05-25T10:37:01.462Z,996.76
2018-05-25T10:38:11.528Z,996.71
2018-05-25T10:39:21.558Z,996.77
2018-05-25T10:40:31.043Z,996.73
2018-05-25T10:41:40.804Z,996.67
2018-05-25T10:42:50.848Z,996.71
2018-05-25T10:44:00.430Z,996.69
2018-05-25T10:45:10.462Z,996.7
2018-05-25T10:46:20.480Z,996.69
2018-05-25T10:47:30.236Z,996.66
2018-05-25T10:48:40.329Z,996.65
2018-05-25T10:49:50.499Z,996.65
2018-05-25T10:51:00.264Z,996.65
2018-05-25T10:52:10.289Z,996.67
2018-05-25T10:53:20.310Z,996.64
2018-05-25T10:54:30.330Z,996.64
2018-05-25T10:55:40.359Z,996.62
2018-05-25T10:56:49.843Z,996.61
2018-05-25T10:57:59.326Z,996.61
2018-05-25T10:59:09.351Z,996.59
2018-05-25T11:00:19.375Z,996.56
2018-05-25T11:01:28.596Z,996.54
2018-05-25T11:02:38.372Z,996.55
2018-05-25T11:03:48.419Z,996.55
2018-05-25T11:04:58.488Z,996.58
2018-05-25T11:06:08.505Z,996.58
2018-05-25T11:07:17.995Z,996.54
2018-05-25T11:08:27.486Z,996.51
2018-05-25T11:09:37.505Z,996.57
2018-05-25T11:10:47.260Z,996.54
2018-05-25T11:11:57.016Z,996.54
2018-05-25T11:13:06.778Z,996.49
2018-05-25T11:14:16.810Z,996.51
2018-05-25T11:15:26.569Z,996.51
2018-05-25T11:16:36.332Z,996.47
2018-05-25T11:17:46.353Z,996.46
2018-05-25T11:18:56.378Z,996.49
2018-05-25T11:20:05.870Z,996.46
2018-05-25T11:21:15.893Z,996.42
2018-05-25T11:22:25.645Z,996.43
2018-05-25T11:23:35.143Z,996.43
2018-05-25T11:24:45.165Z,996.48
2018-05-25T11:25:55.188Z,996.47
2018-05-25T11:27:04.711Z,996.5
2018-05-25T11:28:14.886Z,996.55
2018-05-25T11:29:24.652Z,996.56
2018-05-25T11:30:33.605Z,996.62
2018-05-25T11:31:43.377Z,996.63
2018-05-25T11:32:53.394Z,996.68
2018-05-25T11:34:03.419Z,996.69
2018-05-25T11:35:12.911Z,996.74
2018-05-25T11:36:22.394Z,996.64
2018-05-25T11:37:32.155Z,996.65
2018-05-25T11:38:42.177Z,996.59
2018-05-25T11:39:52.211Z,996.63
2018-05-25T11:41:01.974Z,996.54
2018-05-25T11:42:11.471Z,996.58
2018-05-25T11:43:21.499Z,996.57
2018-05-25T11:44:31.260Z,996.53
2018-05-25T11:45:41.296Z,996.55
2018-05-25T11:46:51.322Z,996.48
2018-05-25T11:48:01.374Z,996.44
2018-05-25T11:49:11.405Z,996.42
2018-05-25T11:50:21.439Z,996.46
2018-05-25T11:51:31.469Z,996.44
2018-05-25T11:52:41.501Z,996.43
2018-05-25T11:53:50.991Z,996.4
2018-05-25T11:55:01.022Z,996.44
2018-05-25T11:56:11.057Z,996.42
2018-05-25T11:57:20.820Z,996.37
2018-05-25T11:58:30.315Z,996.46
2018-05-25T11:59:39.541Z,996.42
2018-05-25T12:00:49.571Z,996.45
2018-05-25T12:01:58.795Z,996.45
2018-05-25T12:03:08.573Z,996.4
2018-05-25T12:04:18.070Z,996.43
2018-05-25T12:05:27.848Z,996.4
2018-05-25T12:06:37.105Z,996.44
2018-05-25T12:07:47.262Z,996.43
2018-05-25T12:08:56.766Z,996.42
2018-05-25T12:10:06.806Z,996.44
2018-05-25T12:11:16.575Z,996.41
2018-05-25T12:12:26.614Z,996.4
2018-05-25T12:13:36.657Z,996.36
2018-05-25T12:14:46.697Z,996.34
2018-05-25T12:15:56.197Z,996.39
2018-05-25T12:17:06.229Z,996.34
2018-05-25T12:18:16.257Z,996.33
2018-05-25T12:19:26.297Z,996.33
2018-05-25T12:20:36.337Z,996.29
2018-05-25T12:21:46.112Z,996.3
2018-05-25T12:22:56.163Z,996.32
2018-05-25T12:24:06.208Z,996.26
2018-05-25T12:25:15.989Z,996.34
2018-05-25T12:26:25.492Z,996.35
2018-05-25T12:27:35.000Z,996.35
2018-05-25T12:28:45.033Z,996.36
2018-05-25T12:29:55.063Z,996.3
2018-05-25T12:31:04.294Z,996.29
2018-05-25T12:32:14.063Z,996.36
2018-05-25T12:33:24.100Z,996.22
2018-05-25T12:34:33.875Z,996.32
2018-05-25T12:35:43.420Z,996.29
2018-05-25T12:36:53.462Z,996.17
2018-05-25T12:38:03.501Z,996.14
2018-05-25T12:39:13.283Z,996.12
2018-05-25T12:40:23.318Z,996.07
2018-05-25T12:41:33.180Z,996.07
2018-05-25T12:42:42.948Z,996.15
2018-05-25T12:43:52.450Z,996.04
2018-05-25T12:45:01.948Z,996.05
2018-05-25T12:46:11.191Z,996.14
2018-05-25T12:47:21.235Z,996.13
2018-05-25T12:48:30.736Z,996.13
2018-05-25T12:49:39.968Z,996.13
2018-05-25T12:50:50.003Z,996.1
2018-05-25T12:51:59.242Z,996.19
2018-05-25T12:53:09.023Z,996.12
2018-05-25T12:54:19.059Z,996.04
2018-05-25T12:55:28.557Z,996.09
2018-05-25T12:56:38.069Z,996.17
2018-05-25T12:57:48.381Z,996.1
2018-05-25T12:58:58.152Z,996.07
2018-05-25T13:00:07.926Z,996.12
2018-05-25T13:01:17.706Z,996.2
2018-05-25T13:02:27.746Z,996.09
2018-05-25T13:03:37.787Z,996.11
2018-05-25T13:04:47.558Z,996.13
2018-05-25T13:05:57.612Z,996.29
2018-05-25T13:07:06.851Z,996.16
2018-05-25T13:08:17.190Z,996.24
2018-05-25T13:09:26.690Z,996.21
2018-05-25T13:10:36.467Z,996.31
2018-05-25T13:11:45.967Z,996.26
2018-05-25T13:12:56.010Z,996.24
2018-05-25T13:14:05.775Z,996.21
2018-05-25T13:15:15.815Z,996.26
2018-05-25T13:16:25.857Z,996.34
2018-05-25T13:17:35.631Z,996.38
2018-05-25T13:18:45.673Z,996.32
2018-05-25T13:19:55.442Z,996.32
2018-05-25T13:21:04.675Z,996.32
2018-05-25T13:22:14.447Z,996.22
2018-05-25T13:23:23.948Z,996.23
2018-05-25T13:24:33.990Z,996.21
2018-05-25T13:25:43.757Z,996.31
2018-05-25T13:26:53.803Z,996.24
2018-05-25T13:28:03.855Z,996.27
2018-05-25T13:29:13.631Z,996.29
2018-05-25T13:30:23.696Z,996.18
2018-05-25T13:31:33.561Z,996.19
2018-05-25T13:32:43.595Z,996.19
2018-05-25T13:33:53.363Z,996.1
2018-05-25T13:35:03.403Z,996.21
2018-05-25T13:36:13.182Z,996.3
2018-05-25T13:37:22.687Z,996.26
2018-05-25T13:38:32.459Z,996.18
2018-05-25T13:39:42.237Z,996.12
2018-05-25T13:40:52.011Z,996.27
2018-05-25T13:42:01.783Z,996.18
2018-05-25T13:43:11.018Z,996.27
2018-05-25T13:44:21.063Z,996.27
2018-05-25T13:45:31.111Z,996.3
2018-05-25T13:46:40.611Z,996.33
2018-05-25T13:47:50.647Z,996.33
2018-05-25T13:49:00.421Z,996.28
2018-05-25T13:50:10.455Z,996.33
2018-05-25T13:51:20.223Z,996.31
2018-05-25T13:52:29.990Z,996.29
2018-05-25T13:53:40.032Z,996.27
2018-05-25T13:54:50.069Z,996.3
2018-05-25T13:55:59.839Z,996.28
2018-05-25T13:57:09.611Z,996.32
2018-05-25T13:58:19.385Z,996.24
2018-05-25T13:59:28.919Z,996.23
2018-05-25T14:00:38.702Z,996.24
2018-05-25T14:01:48.481Z,996.27
2018-05-25T14:02:58.521Z,996.22
2018-05-25T14:04:08.303Z,996.08
2018-05-25T14:05:17.813Z,996.09
2018-05-25T14:06:27.593Z,996.05
2018-05-25T14:07:37.378Z,995.97
2018-05-25T14:08:47.152Z,996.01
2018-05-25T14:09:56.944Z,996
2018-05-25T14:11:06.720Z,995.95
2018-05-25T14:12:16.767Z,996.04
2018-05-25T14:13:26.848Z,996.16
2018-05-25T14:14:36.626Z,996.18
2018-05-25T14:15:46.135Z,996.39
2018-05-25T14:16:55.909Z,996.36
2018-05-25T14:18:05.692Z,996.46
2018-05-25T14:19:15.480Z,996.32
2018-05-25T14:20:24.720Z,996.38
2018-05-25T14:21:34.758Z,996.46
2018-05-25T14:22:44.797Z,996.58
2018-05-25T14:23:54.566Z,996.7
2018-05-25T14:25:04.603Z,996.71
2018-05-25T14:26:14.653Z,996.72
2018-05-25T14:27:24.710Z,996.71
2018-05-25T14:28:34.214Z,996.77
2018-05-25T14:29:43.718Z,996.69
2018-05-25T14:30:52.953Z,996.7
2018-05-25T14:32:02.725Z,996.71
2018-05-25T14:33:12.762Z,996.73
2018-05-25T14:34:22.801Z,996.76
2018-05-25T14:35:32.575Z,996.69
2018-05-25T14:36:42.612Z,996.71
2018-05-25T14:37:52.381Z,996.64